KFCM/FCM METAR and TAF weather

Enter ICAO airport designator
Station Type Date Time Source
KFCM METAR 2020/04/08 19:53 UTC NOAA

KFCM 081953Z 31020G31KT 10SM BKN110 13/M08 A2981 RMK AO2 PK WND 32031/1951 SLP099 T01331083


Station Type Date Time Source
KFCM Decoded METAR 2020/04/08 19:53 UTC NOAA

Minneapolis, Flying Cloud Airport, MN, United States (KFCM) 44-49-56N 093-28-13W 280M
Apr 08, 2020 - 03:53 PM EDT / 2020.04.08 1953 UTC
Wind: from the NW (310 degrees) at 23 MPH (20 KT) gusting to 36 MPH (31 KT):0
Visibility: 10 mile(s):0
Sky conditions: mostly cloudy
Temperature: 55.9 F (13.3 C)
Dew Point: 17.1 F (-8.3 C)
Relative Humidity: 21%
Pressure (altimeter): 29.81 in. Hg (1009 hPa)
ob: KFCM 081953Z 31020G31KT 10SM BKN110 13/M08 A2981 RMK AO2 PK WND 32031/1951 SLP099 T01331083
cycle: 20

Station Type Date Time Source
KFCM TAF 2018/02/05 20:59 UTC NOAA

TAF
AMD KFCM 051959Z 0520/0618 27007KT 6SM -SHSN BKN020 OVC050
TEMPO 0520/0522 SCT020 BKN050
FM052200 27007KT P6SM FEW020 BKN100
FM060100 31007KT P6SM FEW200
FM061000 VRB03KT P6SM FEW250
AMD NOT SKED

Example: see airport list